sensor_id;sensor_type;location;lat;lon;timestamp;temperature;humidity
35970;DHT22;22448;51.298;6.430;2024-01-07T00:00:09;1.50;99.90
35970;DHT22;22448;51.298;6.430;2024-01-07T00:02:36;1.50;99.90
35970;DHT22;22448;51.298;6.430;2024-01-07T00:05:04;1.50;99.90
35970;DHT22;22448;51.298;6.430;2024-01-07T00:07:31;1.50;99.90
35970;DHT22;22448;51.298;6.430;2024-01-07T00:09:58;1.50;99.90
35970;DHT22;22448;51.298;6.430;2024-01-07T00:12:26;1.50;99.90
35970;DHT22;22448;51.298;6.430;2024-01-07T00:14:53;1.50;99.90
35970;DHT22;22448;51.298;6.430;2024-01-07T00:17:19;1.50;99.90
35970;DHT22;22448;51.298;6.430;2024-01-07T00:19:47;1.50;99.90
35970;DHT22;22448;51.298;6.430;2024-01-07T00:22:14;1.50;99.90
35970;DHT22;22448;51.298;6.430;2024-01-07T00:24:41;1.50;99.90
35970;DHT22;22448;51.298;6.430;2024-01-07T00:27:08;1.50;99.90
35970;DHT22;22448;51.298;6.430;2024-01-07T00:29:35;1.50;99.90
35970;DHT22;22448;51.298;6.430;2024-01-07T00:32:02;1.50;99.90
35970;DHT22;22448;51.298;6.430;2024-01-07T00:34:29;1.50;99.90
35970;DHT22;22448;51.298;6.430;2024-01-07T00:36:57;1.50;99.90
35970;DHT22;22448;51.298;6.430;2024-01-07T00:39:24;1.50;99.90
35970;DHT22;22448;51.298;6.430;2024-01-07T00:41:51;1.50;99.90
35970;DHT22;22448;51.298;6.430;2024-01-07T00:44:18;1.50;99.90
35970;DHT22;22448;51.298;6.430;2024-01-07T00:46:45;1.50;99.90
35970;DHT22;22448;51.298;6.430;2024-01-07T00:49:15;1.50;99.90
35970;DHT22;22448;51.298;6.430;2024-01-07T00:51:42;1.50;99.90
35970;DHT22;22448;51.298;6.430;2024-01-07T00:54:10;1.50;99.90
35970;DHT22;22448;51.298;6.430;2024-01-07T00:56:37;1.50;99.90
35970;DHT22;22448;51.298;6.430;2024-01-07T00:59:04;1.50;99.90
35970;DHT22;22448;51.298;6.430;2024-01-07T01:01:31;1.50;99.90
35970;DHT22;22448;51.298;6.430;2024-01-07T01:03:58;1.50;99.90
35970;DHT22;22448;51.298;6.430;2024-01-07T01:06:26;1.50;99.90
35970;DHT22;22448;51.298;6.430;2024-01-07T01:08:53;1.50;99.90
35970;DHT22;22448;51.298;6.430;2024-01-07T01:11:20;1.50;99.90
35970;DHT22;22448;51.298;6.430;2024-01-07T01:13:47;1.50;99.90
35970;DHT22;22448;51.298;6.430;2024-01-07T01:16:14;1.50;99.90
35970;DHT22;22448;51.298;6.430;2024-01-07T01:18:41;1.60;99.90
35970;DHT22;22448;51.298;6.430;2024-01-07T01:21:09;1.60;99.90
35970;DHT22;22448;51.298;6.430;2024-01-07T01:23:36;1.60;99.90
35970;DHT22;22448;51.298;6.430;2024-01-07T01:26:03;1.60;99.90
35970;DHT22;22448;51.298;6.430;2024-01-07T01:28:30;1.50;99.90
35970;DHT22;22448;51.298;6.430;2024-01-07T01:31:00;1.50;99.90
35970;DHT22;22448;51.298;6.430;2024-01-07T01:33:28;1.50;99.90
35970;DHT22;22448;51.298;6.430;2024-01-07T01:35:55;1.50;99.90
35970;DHT22;22448;51.298;6.430;2024-01-07T01:38:22;1.50;99.90
35970;DHT22;22448;51.298;6.430;2024-01-07T01:40:55;1.50;99.90
35970;DHT22;22448;51.298;6.430;2024-01-07T01:43:26;1.50;99.90
35970;DHT22;22448;51.298;6.430;2024-01-07T01:45:55;1.50;99.90
35970;DHT22;22448;51.298;6.430;2024-01-07T01:48:23;1.50;99.90
35970;DHT22;22448;51.298;6.430;2024-01-07T01:50:51;1.60;99.90
35970;DHT22;22448;51.298;6.430;2024-01-07T01:53:20;1.50;99.90
35970;DHT22;22448;51.298;6.430;2024-01-07T01:55:48;1.60;99.90
35970;DHT22;22448;51.298;6.430;2024-01-07T01:58:17;1.60;99.90
35970;DHT22;22448;51.298;6.430;2024-01-07T02:00:45;1.60;99.90
35970;DHT22;22448;51.298;6.430;2024-01-07T02:03:12;1.60;99.90
35970;DHT22;22448;51.298;6.430;2024-01-07T02:05:40;1.60;99.90
35970;DHT22;22448;51.298;6.430;2024-01-07T02:08:07;1.60;99.90
35970;DHT22;22448;51.298;6.430;2024-01-07T02:10:34;1.60;99.90
35970;DHT22;22448;51.298;6.430;2024-01-07T02:13:07;1.60;99.90
35970;DHT22;22448;51.298;6.430;2024-01-07T02:15:34;1.50;99.90
35970;DHT22;22448;51.298;6.430;2024-01-07T02:18:01;1.50;99.90
35970;DHT22;22448;51.298;6.430;2024-01-07T02:20:29;1.60;99.90
35970;DHT22;22448;51.298;6.430;2024-01-07T02:22:56;1.50;99.90
35970;DHT22;22448;51.298;6.430;2024-01-07T02:25:25;1.60;99.90
35970;DHT22;22448;51.298;6.430;2024-01-07T02:27:53;1.50;99.90
35970;DHT22;22448;51.298;6.430;2024-01-07T02:30:20;1.50;99.90
35970;DHT22;22448;51.298;6.430;2024-01-07T02:32:47;1.50;99.90
35970;DHT22;22448;51.298;6.430;2024-01-07T02:35:15;1.50;99.90
35970;DHT22;22448;51.298;6.430;2024-01-07T02:37:42;1.50;99.90
35970;DHT22;22448;51.298;6.430;2024-01-07T02:40:09;1.50;99.90
35970;DHT22;22448;51.298;6.430;2024-01-07T02:42:36;1.50;99.90
35970;DHT22;22448;51.298;6.430;2024-01-07T02:45:04;1.50;99.90
35970;DHT22;22448;51.298;6.430;2024-01-07T02:47:31;1.50;99.90
35970;DHT22;22448;51.298;6.430;2024-01-07T02:49:58;1.50;99.90
35970;DHT22;22448;51.298;6.430;2024-01-07T02:52:25;1.40;99.90
35970;DHT22;22448;51.298;6.430;2024-01-07T02:54:52;1.40;99.90
35970;DHT22;22448;51.298;6.430;2024-01-07T02:57:19;1.40;99.90
35970;DHT22;22448;51.298;6.430;2024-01-07T02:59:46;1.40;99.90
35970;DHT22;22448;51.298;6.430;2024-01-07T03:02:13;1.40;99.90
35970;DHT22;22448;51.298;6.430;2024-01-07T03:04:40;1.40;99.90
35970;DHT22;22448;51.298;6.430;2024-01-07T03:07:07;1.40;99.90
35970;DHT22;22448;51.298;6.430;2024-01-07T03:09:34;1.40;99.90
35970;DHT22;22448;51.298;6.430;2024-01-07T03:12:01;1.40;99.90
35970;DHT22;22448;51.298;6.430;2024-01-07T03:14:28;1.40;99.90
35970;DHT22;22448;51.298;6.430;2024-01-07T03:16:55;1.40;99.90
35970;DHT22;22448;51.298;6.430;2024-01-07T03:19:22;1.40;99.90
35970;DHT22;22448;51.298;6.430;2024-01-07T03:21:50;1.40;99.90
35970;DHT22;22448;51.298;6.430;2024-01-07T03:24:17;1.40;99.90
35970;DHT22;22448;51.298;6.430;2024-01-07T03:26:44;1.40;99.90
35970;DHT22;22448;51.298;6.430;2024-01-07T03:29:11;1.40;99.90
35970;DHT22;22448;51.298;6.430;2024-01-07T03:31:38;1.40;99.90
35970;DHT22;22448;51.298;6.430;2024-01-07T03:34:05;1.40;99.90
35970;DHT22;22448;51.298;6.430;2024-01-07T03:36:32;1.30;99.90
35970;DHT22;22448;51.298;6.430;2024-01-07T03:38:59;1.30;99.90
35970;DHT22;22448;51.298;6.430;2024-01-07T03:41:27;1.30;99.90
35970;DHT22;22448;51.298;6.430;2024-01-07T03:43:54;1.30;99.90
35970;DHT22;22448;51.298;6.430;2024-01-07T03:46:23;1.40;99.90
35970;DHT22;22448;51.298;6.430;2024-01-07T03:48:50;1.40;99.90
35970;DHT22;22448;51.298;6.430;2024-01-07T03:51:17;1.40;99.90
35970;DHT22;22448;51.298;6.430;2024-01-07T03:53:44;1.40;99.90
35970;DHT22;22448;51.298;6.430;2024-01-07T03:56:11;1.30;99.90
35970;DHT22;22448;51.298;6.430;2024-01-07T03:58:38;1.30;99.90
35970;DHT22;22448;51.298;6.430;2024-01-07T04:01:05;1.30;99.90
35970;DHT22;22448;51.298;6.430;2024-01-07T04:03:33;1.30;99.90
35970;DHT22;22448;51.298;6.430;2024-01-07T04:06:00;1.30;99.90
35970;DHT22;22448;51.298;6.430;2024-01-07T04:08:27;1.30;99.90
35970;DHT22;22448;51.298;6.430;2024-01-07T04:10:55;1.20;99.90
35970;DHT22;22448;51.298;6.430;2024-01-07T04:13:22;1.20;99.90
35970;DHT22;22448;51.298;6.430;2024-01-07T04:15:49;1.20;99.90
35970;DHT22;22448;51.298;6.430;2024-01-07T04:18:16;1.30;99.90
35970;DHT22;22448;51.298;6.430;2024-01-07T04:20:44;1.20;99.90
35970;DHT22;22448;51.298;6.430;2024-01-07T04:23:11;1.10;99.90
35970;DHT22;22448;51.298;6.430;2024-01-07T04:25:38;1.10;99.90
35970;DHT22;22448;51.298;6.430;2024-01-07T04:28:08;1.10;99.90
35970;DHT22;22448;51.298;6.430;2024-01-07T04:30:36;1.20;99.90
35970;DHT22;22448;51.298;6.430;2024-01-07T04:33:03;1.20;99.90
35970;DHT22;22448;51.298;6.430;2024-01-07T04:35:31;1.20;99.90
35970;DHT22;22448;51.298;6.430;2024-01-07T04:37:58;1.20;99.90
35970;DHT22;22448;51.298;6.430;2024-01-07T04:40:25;1.20;99.90
35970;DHT22;22448;51.298;6.430;2024-01-07T04:42:51;1.20;99.90
35970;DHT22;22448;51.298;6.430;2024-01-07T04:45:18;1.20;99.90
35970;DHT22;22448;51.298;6.430;2024-01-07T04:47:45;1.10;99.90
35970;DHT22;22448;51.298;6.430;2024-01-07T04:50:12;1.10;99.90
35970;DHT22;22448;51.298;6.430;2024-01-07T04:52:41;1.10;99.90
35970;DHT22;22448;51.298;6.430;2024-01-07T04:55:08;1.10;99.90
35970;DHT22;22448;51.298;6.430;2024-01-07T04:57:36;1.10;99.90
35970;DHT22;22448;51.298;6.430;2024-01-07T05:00:04;1.00;99.90
35970;DHT22;22448;51.298;6.430;2024-01-07T05:02:31;1.00;99.90
35970;DHT22;22448;51.298;6.430;2024-01-07T05:04:58;1.00;99.90
35970;DHT22;22448;51.298;6.430;2024-01-07T05:07:26;1.00;99.90
35970;DHT22;22448;51.298;6.430;2024-01-07T05:09:53;1.00;99.90
35970;DHT22;22448;51.298;6.430;2024-01-07T05:12:20;1.00;99.90
35970;DHT22;22448;51.298;6.430;2024-01-07T05:14:48;0.90;99.90
35970;DHT22;22448;51.298;6.430;2024-01-07T05:17:15;0.90;99.90
35970;DHT22;22448;51.298;6.430;2024-01-07T05:19:42;0.90;99.90
35970;DHT22;22448;51.298;6.430;2024-01-07T05:22:09;0.90;99.90
35970;DHT22;22448;51.298;6.430;2024-01-07T05:24:37;0.90;99.90
35970;DHT22;22448;51.298;6.430;2024-01-07T05:27:05;0.90;99.90
35970;DHT22;22448;51.298;6.430;2024-01-07T05:29:32;0.90;99.90
35970;DHT22;22448;51.298;6.430;2024-01-07T05:32:00;0.90;99.90
35970;DHT22;22448;51.298;6.430;2024-01-07T05:34:28;0.90;99.90
35970;DHT22;22448;51.298;6.430;2024-01-07T05:36:55;0.90;99.90
35970;DHT22;22448;51.298;6.430;2024-01-07T05:39:23;1.00;99.90
35970;DHT22;22448;51.298;6.430;2024-01-07T05:41:49;0.90;99.90
35970;DHT22;22448;51.298;6.430;2024-01-07T05:44:16;0.90;99.90
35970;DHT22;22448;51.298;6.430;2024-01-07T05:46:43;0.90;99.90
35970;DHT22;22448;51.298;6.430;2024-01-07T05:49:10;0.90;99.90
35970;DHT22;22448;51.298;6.430;2024-01-07T05:51:41;0.90;99.90
35970;DHT22;22448;51.298;6.430;2024-01-07T05:54:08;0.80;99.90
35970;DHT22;22448;51.298;6.430;2024-01-07T05:56:39;0.90;99.90
35970;DHT22;22448;51.298;6.430;2024-01-07T05:59:07;0.90;99.90
35970;DHT22;22448;51.298;6.430;2024-01-07T06:01:34;0.90;99.90
35970;DHT22;22448;51.298;6.430;2024-01-07T06:04:02;0.90;99.90
35970;DHT22;22448;51.298;6.430;2024-01-07T06:06:30;0.90;99.90
35970;DHT22;22448;51.298;6.430;2024-01-07T06:08:57;0.90;99.90
35970;DHT22;22448;51.298;6.430;2024-01-07T06:11:24;0.90;99.90
35970;DHT22;22448;51.298;6.430;2024-01-07T06:13:51;0.90;99.90
35970;DHT22;22448;51.298;6.430;2024-01-07T06:16:18;0.90;99.90
35970;DHT22;22448;51.298;6.430;2024-01-07T06:18:45;0.90;99.90
35970;DHT22;22448;51.298;6.430;2024-01-07T06:21:13;0.90;99.90
35970;DHT22;22448;51.298;6.430;2024-01-07T06:23:40;0.90;99.90
35970;DHT22;22448;51.298;6.430;2024-01-07T06:26:07;0.90;99.90
35970;DHT22;22448;51.298;6.430;2024-01-07T06:28:34;0.80;99.90
35970;DHT22;22448;51.298;6.430;2024-01-07T06:31:03;0.80;99.90
35970;DHT22;22448;51.298;6.430;2024-01-07T06:33:31;0.80;99.90
35970;DHT22;22448;51.298;6.430;2024-01-07T06:36:00;0.80;99.90
35970;DHT22;22448;51.298;6.430;2024-01-07T06:38:27;0.70;99.90
35970;DHT22;22448;51.298;6.430;2024-01-07T06:40:54;0.70;99.90
35970;DHT22;22448;51.298;6.430;2024-01-07T06:43:27;0.60;99.90
35970;DHT22;22448;51.298;6.430;2024-01-07T06:45:55;0.60;99.90
35970;DHT22;22448;51.298;6.430;2024-01-07T06:48:22;0.60;99.90
35970;DHT22;22448;51.298;6.430;2024-01-07T06:50:50;0.60;99.90
35970;DHT22;22448;51.298;6.430;2024-01-07T06:53:17;0.60;99.90
35970;DHT22;22448;51.298;6.430;2024-01-07T06:55:44;0.60;99.90
35970;DHT22;22448;51.298;6.430;2024-01-07T06:58:11;0.60;99.90
35970;DHT22;22448;51.298;6.430;2024-01-07T07:00:38;0.60;99.90
35970;DHT22;22448;51.298;6.430;2024-01-07T07:03:06;0.60;99.90
35970;DHT22;22448;51.298;6.430;2024-01-07T07:05:34;0.60;99.90
35970;DHT22;22448;51.298;6.430;2024-01-07T07:08:01;0.60;99.90
35970;DHT22;22448;51.298;6.430;2024-01-07T07:10:29;0.50;99.90
35970;DHT22;22448;51.298;6.430;2024-01-07T07:12:58;0.50;99.90
35970;DHT22;22448;51.298;6.430;2024-01-07T07:15:25;0.50;99.90
35970;DHT22;22448;51.298;6.430;2024-01-07T07:17:55;0.50;99.90
35970;DHT22;22448;51.298;6.430;2024-01-07T07:20:22;0.50;99.90
35970;DHT22;22448;51.298;6.430;2024-01-07T07:22:49;0.50;99.90
35970;DHT22;22448;51.298;6.430;2024-01-07T07:25:18;0.50;99.90
35970;DHT22;22448;51.298;6.430;2024-01-07T07:27:45;0.50;99.90
35970;DHT22;22448;51.298;6.430;2024-01-07T07:30:13;0.40;99.90
35970;DHT22;22448;51.298;6.430;2024-01-07T07:32:40;0.40;99.90
35970;DHT22;22448;51.298;6.430;2024-01-07T07:35:08;0.50;99.90
35970;DHT22;22448;51.298;6.430;2024-01-07T07:37:36;0.50;99.90
35970;DHT22;22448;51.298;6.430;2024-01-07T07:40:04;0.50;99.90
35970;DHT22;22448;51.298;6.430;2024-01-07T07:42:31;0.50;99.90
35970;DHT22;22448;51.298;6.430;2024-01-07T07:44:58;0.50;99.90
35970;DHT22;22448;51.298;6.430;2024-01-07T07:47:25;0.50;99.90
35970;DHT22;22448;51.298;6.430;2024-01-07T07:49:52;0.40;99.90
35970;DHT22;22448;51.298;6.430;2024-01-07T07:52:19;0.40;99.90
35970;DHT22;22448;51.298;6.430;2024-01-07T07:54:52;0.40;99.90
35970;DHT22;22448;51.298;6.430;2024-01-07T07:57:21;0.40;99.90
35970;DHT22;22448;51.298;6.430;2024-01-07T07:59:48;0.40;99.90
35970;DHT22;22448;51.298;6.430;2024-01-07T08:02:16;0.40;99.90
35970;DHT22;22448;51.298;6.430;2024-01-07T08:04:43;0.40;99.90
35970;DHT22;22448;51.298;6.430;2024-01-07T08:07:10;0.40;99.90
35970;DHT22;22448;51.298;6.430;2024-01-07T08:09:37;0.40;99.90
35970;DHT22;22448;51.298;6.430;2024-01-07T08:12:05;0.40;99.90
35970;DHT22;22448;51.298;6.430;2024-01-07T08:14:33;0.40;99.90
35970;DHT22;22448;51.298;6.430;2024-01-07T08:17:00;0.40;99.90
35970;DHT22;22448;51.298;6.430;2024-01-07T08:19:27;0.40;99.90
35970;DHT22;22448;51.298;6.430;2024-01-07T08:21:54;0.40;99.90
35970;DHT22;22448;51.298;6.430;2024-01-07T08:24:23;0.40;99.90
35970;DHT22;22448;51.298;6.430;2024-01-07T08:26:50;0.40;99.90
35970;DHT22;22448;51.298;6.430;2024-01-07T08:29:18;0.40;99.90
35970;DHT22;22448;51.298;6.430;2024-01-07T08:31:45;0.40;99.90
35970;DHT22;22448;51.298;6.430;2024-01-07T08:34:13;0.40;99.90
35970;DHT22;22448;51.298;6.430;2024-01-07T08:36:42;0.40;99.90
35970;DHT22;22448;51.298;6.430;2024-01-07T08:39:09;0.40;99.90
35970;DHT22;22448;51.298;6.430;2024-01-07T08:41:37;0.40;99.90
35970;DHT22;22448;51.298;6.430;2024-01-07T08:44:04;0.40;99.90
35970;DHT22;22448;51.298;6.430;2024-01-07T08:46:32;0.40;99.90
35970;DHT22;22448;51.298;6.430;2024-01-07T08:48:59;0.40;99.90
35970;DHT22;22448;51.298;6.430;2024-01-07T08:51:26;0.40;99.90
35970;DHT22;22448;51.298;6.430;2024-01-07T08:53:53;0.50;99.90
35970;DHT22;22448;51.298;6.430;2024-01-07T08:56:20;0.50;99.90
35970;DHT22;22448;51.298;6.430;2024-01-07T08:58:47;0.50;99.90
35970;DHT22;22448;51.298;6.430;2024-01-07T09:01:15;0.50;99.90
35970;DHT22;22448;51.298;6.430;2024-01-07T09:03:42;0.60;99.90
35970;DHT22;22448;51.298;6.430;2024-01-07T09:06:09;0.50;99.90
35970;DHT22;22448;51.298;6.430;2024-01-07T09:08:36;0.50;99.90
35970;DHT22;22448;51.298;6.430;2024-01-07T09:11:04;0.60;99.90
35970;DHT22;22448;51.298;6.430;2024-01-07T09:13:33;0.60;99.90
35970;DHT22;22448;51.298;6.430;2024-01-07T09:16:00;0.60;99.90
35970;DHT22;22448;51.298;6.430;2024-01-07T09:18:27;0.60;99.90
35970;DHT22;22448;51.298;6.430;2024-01-07T09:20:55;0.60;99.90
35970;DHT22;22448;51.298;6.430;2024-01-07T09:23:21;0.60;99.90
35970;DHT22;22448;51.298;6.430;2024-01-07T09:25:48;0.60;99.90
35970;DHT22;22448;51.298;6.430;2024-01-07T09:28:16;0.60;99.90
35970;DHT22;22448;51.298;6.430;2024-01-07T09:30:43;0.60;99.90
35970;DHT22;22448;51.298;6.430;2024-01-07T09:33:10;0.50;99.90
35970;DHT22;22448;51.298;6.430;2024-01-07T09:35:37;0.50;99.90
35970;DHT22;22448;51.298;6.430;2024-01-07T09:38:04;0.50;99.90
35970;DHT22;22448;51.298;6.430;2024-01-07T09:40:31;0.50;99.90
35970;DHT22;22448;51.298;6.430;2024-01-07T09:42:58;0.50;99.90
35970;DHT22;22448;51.298;6.430;2024-01-07T09:45:26;0.50;99.90
35970;DHT22;22448;51.298;6.430;2024-01-07T09:47:55;0.50;99.90
35970;DHT22;22448;51.298;6.430;2024-01-07T09:50:22;0.50;99.90
35970;DHT22;22448;51.298;6.430;2024-01-07T09:52:50;0.50;99.90
35970;DHT22;22448;51.298;6.430;2024-01-07T09:55:26;0.50;99.90
35970;DHT22;22448;51.298;6.430;2024-01-07T09:57:56;0.60;99.90
35970;DHT22;22448;51.298;6.430;2024-01-07T10:00:26;0.60;99.90
35970;DHT22;22448;51.298;6.430;2024-01-07T10:02:54;0.60;99.90
35970;DHT22;22448;51.298;6.430;2024-01-07T10:05:21;0.50;99.90
35970;DHT22;22448;51.298;6.430;2024-01-07T10:07:48;0.50;99.90
35970;DHT22;22448;51.298;6.430;2024-01-07T10:10:16;0.50;99.90
35970;DHT22;22448;51.298;6.430;2024-01-07T10:12:46;0.50;99.90
35970;DHT22;22448;51.298;6.430;2024-01-07T10:15:14;0.50;99.90
35970;DHT22;22448;51.298;6.430;2024-01-07T10:17:42;0.50;99.90
35970;DHT22;22448;51.298;6.430;2024-01-07T10:20:10;0.50;99.90
35970;DHT22;22448;51.298;6.430;2024-01-07T10:22:37;0.50;99.90
35970;DHT22;22448;51.298;6.430;2024-01-07T10:25:07;0.50;99.90
35970;DHT22;22448;51.298;6.430;2024-01-07T10:27:35;0.50;99.90
35970;DHT22;22448;51.298;6.430;2024-01-07T10:30:03;0.50;99.90
35970;DHT22;22448;51.298;6.430;2024-01-07T10:32:30;0.50;99.90
35970;DHT22;22448;51.298;6.430;2024-01-07T10:35:04;0.50;99.90
35970;DHT22;22448;51.298;6.430;2024-01-07T10:37:32;0.50;99.90
35970;DHT22;22448;51.298;6.430;2024-01-07T10:39:59;0.50;99.90
35970;DHT22;22448;51.298;6.430;2024-01-07T10:42:31;0.50;99.90
35970;DHT22;22448;51.298;6.430;2024-01-07T10:45:02;0.40;99.90
35970;DHT22;22448;51.298;6.430;2024-01-07T10:47:34;0.40;99.90
35970;DHT22;22448;51.298;6.430;2024-01-07T10:50:03;0.40;99.90
35970;DHT22;22448;51.298;6.430;2024-01-07T10:52:32;0.40;99.90
35970;DHT22;22448;51.298;6.430;2024-01-07T10:55:07;0.30;99.90
35970;DHT22;22448;51.298;6.430;2024-01-07T10:57:42;0.30;99.90
35970;DHT22;22448;51.298;6.430;2024-01-07T11:00:12;0.30;99.90
35970;DHT22;22448;51.298;6.430;2024-01-07T11:05:33;0.40;99.90
35970;DHT22;22448;51.298;6.430;2024-01-07T11:08:10;0.50;99.90
35970;DHT22;22448;51.298;6.430;2024-01-07T11:10:48;0.50;99.90
35970;DHT22;22448;51.298;6.430;2024-01-07T11:13:36;0.50;99.90
35970;DHT22;22448;51.298;6.430;2024-01-07T11:16:06;0.40;99.90
35970;DHT22;22448;51.298;6.430;2024-01-07T11:18:39;0.40;99.90
35970;DHT22;22448;51.298;6.430;2024-01-07T11:21:06;0.40;99.90
35970;DHT22;22448;51.298;6.430;2024-01-07T11:23:34;0.40;99.90
35970;DHT22;22448;51.298;6.430;2024-01-07T11:26:07;0.40;99.90
35970;DHT22;22448;51.298;6.430;2024-01-07T11:28:55;0.40;99.90
35970;DHT22;22448;51.298;6.430;2024-01-07T11:31:45;0.40;99.90
35970;DHT22;22448;51.298;6.430;2024-01-07T11:34:39;0.40;99.90
35970;DHT22;22448;51.298;6.430;2024-01-07T11:37:19;0.30;99.90
35970;DHT22;22448;51.298;6.430;2024-01-07T11:39:48;0.30;99.90
35970;DHT22;22448;51.298;6.430;2024-01-07T11:42:16;0.20;99.90
35970;DHT22;22448;51.298;6.430;2024-01-07T11:44:48;0.20;99.90
35970;DHT22;22448;51.298;6.430;2024-01-07T11:47:18;0.20;99.90
35970;DHT22;22448;51.298;6.430;2024-01-07T11:49:46;0.20;99.90
35970;DHT22;22448;51.298;6.430;2024-01-07T11:52:14;0.20;99.90
35970;DHT22;22448;51.298;6.430;2024-01-07T11:54:41;0.20;99.90
35970;DHT22;22448;51.298;6.430;2024-01-07T11:57:10;0.20;99.90
35970;DHT22;22448;51.298;6.430;2024-01-07T11:59:37;0.20;99.90
35970;DHT22;22448;51.298;6.430;2024-01-07T12:02:08;0.20;99.90
35970;DHT22;22448;51.298;6.430;2024-01-07T12:04:35;0.10;99.90
35970;DHT22;22448;51.298;6.430;2024-01-07T12:07:02;0.20;99.90
35970;DHT22;22448;51.298;6.430;2024-01-07T12:09:30;0.10;99.90
35970;DHT22;22448;51.298;6.430;2024-01-07T12:11:58;0.10;99.90
35970;DHT22;22448;51.298;6.430;2024-01-07T12:14:26;0.10;99.90
35970;DHT22;22448;51.298;6.430;2024-01-07T12:16:53;0.10;99.90
35970;DHT22;22448;51.298;6.430;2024-01-07T12:19:21;0.10;99.90
35970;DHT22;22448;51.298;6.430;2024-01-07T12:22:04;0.10;99.90
35970;DHT22;22448;51.298;6.430;2024-01-07T12:24:32;0.10;99.90
35970;DHT22;22448;51.298;6.430;2024-01-07T12:27:06;0.10;99.90
35970;DHT22;22448;51.298;6.430;2024-01-07T12:29:33;0.10;99.90
35970;DHT22;22448;51.298;6.430;2024-01-07T12:32:01;0.10;99.90
35970;DHT22;22448;51.298;6.430;2024-01-07T12:34:30;0.10;99.90
35970;DHT22;22448;51.298;6.430;2024-01-07T12:36:58;0.10;99.90
35970;DHT22;22448;51.298;6.430;2024-01-07T12:39:26;0.10;99.90
35970;DHT22;22448;51.298;6.430;2024-01-07T12:41:54;0.10;99.90
35970;DHT22;22448;51.298;6.430;2024-01-07T12:44:22;0.10;99.90
35970;DHT22;22448;51.298;6.430;2024-01-07T12:46:49;0.10;99.90
35970;DHT22;22448;51.298;6.430;2024-01-07T12:49:18;0.10;99.90
35970;DHT22;22448;51.298;6.430;2024-01-07T12:51:46;0.10;99.90
35970;DHT22;22448;51.298;6.430;2024-01-07T12:54:13;0.10;99.90
35970;DHT22;22448;51.298;6.430;2024-01-07T12:56:40;0.00;99.90
35970;DHT22;22448;51.298;6.430;2024-01-07T12:59:07;0.00;99.90
35970;DHT22;22448;51.298;6.430;2024-01-07T13:01:34;0.00;99.90
35970;DHT22;22448;51.298;6.430;2024-01-07T13:04:03;-0.10;99.90
35970;DHT22;22448;51.298;6.430;2024-01-07T13:06:30;-0.10;99.90
35970;DHT22;22448;51.298;6.430;2024-01-07T13:08:57;-0.10;99.90
35970;DHT22;22448;51.298;6.430;2024-01-07T13:11:27;-0.10;99.90
35970;DHT22;22448;51.298;6.430;2024-01-07T13:13:54;-0.10;99.90
35970;DHT22;22448;51.298;6.430;2024-01-07T13:16:25;-0.10;99.90
35970;DHT22;22448;51.298;6.430;2024-01-07T13:18:52;-0.10;99.90
35970;DHT22;22448;51.298;6.430;2024-01-07T13:21:20;-0.10;99.90
35970;DHT22;22448;51.298;6.430;2024-01-07T13:23:47;-0.20;99.90
35970;DHT22;22448;51.298;6.430;2024-01-07T13:26:15;-0.20;99.90
35970;DHT22;22448;51.298;6.430;2024-01-07T13:28:43;-0.20;99.90
35970;DHT22;22448;51.298;6.430;2024-01-07T13:31:10;-0.30;99.90
35970;DHT22;22448;51.298;6.430;2024-01-07T13:33:40;-0.30;99.90
35970;DHT22;22448;51.298;6.430;2024-01-07T13:36:07;-0.30;99.90
35970;DHT22;22448;51.298;6.430;2024-01-07T13:38:36;-0.30;99.90
35970;DHT22;22448;51.298;6.430;2024-01-07T13:41:05;-0.30;99.90
35970;DHT22;22448;51.298;6.430;2024-01-07T13:43:32;-0.30;99.90
35970;DHT22;22448;51.298;6.430;2024-01-07T13:45:59;-0.40;99.90
35970;DHT22;22448;51.298;6.430;2024-01-07T13:48:26;-0.30;99.90
35970;DHT22;22448;51.298;6.430;2024-01-07T13:50:53;-0.30;99.90
35970;DHT22;22448;51.298;6.430;2024-01-07T13:53:21;-0.40;99.90
35970;DHT22;22448;51.298;6.430;2024-01-07T13:55:48;-0.40;99.90
35970;DHT22;22448;51.298;6.430;2024-01-07T13:58:15;-0.40;99.90
35970;DHT22;22448;51.298;6.430;2024-01-07T14:00:43;-0.40;99.90
35970;DHT22;22448;51.298;6.430;2024-01-07T14:03:10;-0.30;99.90
35970;DHT22;22448;51.298;6.430;2024-01-07T14:05:37;-0.30;99.90
35970;DHT22;22448;51.298;6.430;2024-01-07T14:08:04;-0.30;99.90
35970;DHT22;22448;51.298;6.430;2024-01-07T14:10:31;-0.30;99.90
35970;DHT22;22448;51.298;6.430;2024-01-07T14:12:58;-0.30;99.90
35970;DHT22;22448;51.298;6.430;2024-01-07T14:15:25;-0.40;99.90
35970;DHT22;22448;51.298;6.430;2024-01-07T14:17:51;-0.40;99.90
35970;DHT22;22448;51.298;6.430;2024-01-07T14:20:19;-0.40;99.90
35970;DHT22;22448;51.298;6.430;2024-01-07T14:22:48;-0.50;99.90
35970;DHT22;22448;51.298;6.430;2024-01-07T14:25:15;-0.50;99.90
35970;DHT22;22448;51.298;6.430;2024-01-07T14:27:42;-0.60;99.90
35970;DHT22;22448;51.298;6.430;2024-01-07T14:30:10;-0.60;99.90
35970;DHT22;22448;51.298;6.430;2024-01-07T14:32:37;-0.60;99.90
35970;DHT22;22448;51.298;6.430;2024-01-07T14:35:05;-0.60;99.90
35970;DHT22;22448;51.298;6.430;2024-01-07T14:37:32;-0.60;99.90
35970;DHT22;22448;51.298;6.430;2024-01-07T14:39:59;-0.60;99.90
35970;DHT22;22448;51.298;6.430;2024-01-07T14:42:26;-0.60;99.90
35970;DHT22;22448;51.298;6.430;2024-01-07T14:44:53;-0.60;99.90
35970;DHT22;22448;51.298;6.430;2024-01-07T14:47:20;-0.60;99.90
35970;DHT22;22448;51.298;6.430;2024-01-07T14:49:48;-0.60;99.90
35970;DHT22;22448;51.298;6.430;2024-01-07T14:52:15;-0.60;99.90
35970;DHT22;22448;51.298;6.430;2024-01-07T14:54:42;-0.60;99.90
35970;DHT22;22448;51.298;6.430;2024-01-07T14:57:10;-0.60;99.90
35970;DHT22;22448;51.298;6.430;2024-01-07T14:59:39;-0.60;99.90
35970;DHT22;22448;51.298;6.430;2024-01-07T15:02:06;-0.60;99.90
35970;DHT22;22448;51.298;6.430;2024-01-07T15:04:36;-0.60;99.90
35970;DHT22;22448;51.298;6.430;2024-01-07T15:07:03;-0.60;99.90
35970;DHT22;22448;51.298;6.430;2024-01-07T15:09:30;-0.60;99.90
35970;DHT22;22448;51.298;6.430;2024-01-07T15:11:58;-0.50;99.90
35970;DHT22;22448;51.298;6.430;2024-01-07T15:14:25;-0.50;99.90
35970;DHT22;22448;51.298;6.430;2024-01-07T15:16:53;-0.50;99.90
35970;DHT22;22448;51.298;6.430;2024-01-07T15:19:21;-0.50;99.90
35970;DHT22;22448;51.298;6.430;2024-01-07T15:21:50;-0.50;99.90
35970;DHT22;22448;51.298;6.430;2024-01-07T15:24:17;-0.50;99.90
35970;DHT22;22448;51.298;6.430;2024-01-07T15:26:44;-0.60;99.90
35970;DHT22;22448;51.298;6.430;2024-01-07T15:29:11;-0.60;99.90
35970;DHT22;22448;51.298;6.430;2024-01-07T15:31:38;-0.50;99.90
35970;DHT22;22448;51.298;6.430;2024-01-07T15:34:05;-0.60;99.90
35970;DHT22;22448;51.298;6.430;2024-01-07T15:36:33;-0.50;99.90
35970;DHT22;22448;51.298;6.430;2024-01-07T15:39:00;-0.50;99.90
35970;DHT22;22448;51.298;6.430;2024-01-07T15:41:27;-0.50;99.90
35970;DHT22;22448;51.298;6.430;2024-01-07T15:43:55;-0.50;99.90
35970;DHT22;22448;51.298;6.430;2024-01-07T15:46:22;-0.50;99.90
35970;DHT22;22448;51.298;6.430;2024-01-07T15:48:49;-0.50;99.90